Time;durP1;ratioP1;P1;durP2;ratioP2;P2;SDS_P1;SDS_P2;PMS_P1;PMS_P2;Temp;Humidity;BMP_temperature;BMP_pressure;BME280_temperature;BME280_humidity;BME280_pressure;Samples;Min_cycle;Max_cycle;Signal;HPM_P1;HPM_P2
2021/04/15 00:00:35;;;;;;;6.70;5.10;;;5.70;88.80;;;;;;5090417;28;20179;-80
2021/04/15 00:03:07;;;;;;;4.30;3.90;;;5.70;88.80;;;;;;5090780;28;20218;-80
2021/04/15 00:05:33;;;;;;;4.38;3.95;;;5.70;88.90;;;;;;5089770;28;20249;-80
2021/04/15 00:07:59;;;;;;;5.63;4.72;;;5.70;89.00;;;;;;5088927;28;20221;-80
2021/04/15 00:10:33;;;;;;;5.57;4.70;;;5.60;89.30;;;;;;5087966;28;20164;-80
2021/04/15 00:13:00;;;;;;;5.68;4.75;;;5.60;90.10;;;;;;5087312;28;20259;-80
2021/04/15 00:15:26;;;;;;;5.53;4.18;;;5.60;89.90;;;;;;5071321;28;20568;-80
2021/04/15 00:17:52;;;;;;;6.03;5.43;;;5.60;90.00;;;;;;5050543;28;20633;-80
2021/04/15 00:20:18;;;;;;;5.67;5.27;;;5.50;90.10;;;;;;5067179;28;20177;-80
2021/04/15 00:22:43;;;;;;;5.65;5.15;;;5.50;90.20;;;;;;5066851;28;20482;-81
2021/04/15 00:25:13;;;;;;;5.90;5.30;;;5.50;90.40;;;;;;5067523;28;20208;-80
2021/04/15 00:27:41;;;;;;;6.95;5.03;;;5.40;90.60;;;;;;5067665;28;20230;-80
2021/04/15 00:30:08;;;;;;;5.73;4.63;;;5.40;90.60;;;;;;5071313;28;20185;-79
2021/04/15 00:32:34;;;;;;;5.75;4.97;;;5.40;90.80;;;;;;5069802;28;20655;-79
2021/04/15 00:35:00;;;;;;;5.68;4.90;;;5.40;90.90;;;;;;5080757;28;20202;-79
2021/04/15 00:37:26;;;;;;;5.85;5.03;;;5.40;91.00;;;;;;5086716;28;20183;-80
2021/04/15 00:39:52;;;;;;;7.37;5.63;;;5.40;91.20;;;;;;5084685;28;20156;-80
2021/04/15 00:42:18;;;;;;;6.33;5.23;;;5.30;91.40;;;;;;5086945;28;20191;-81
2021/04/15 00:44:46;;;;;;;7.47;6.03;;;5.30;91.50;;;;;;5069926;28;20550;-80
2021/04/15 00:47:24;;;;;;;6.47;5.10;;;5.30;91.60;;;;;;5086541;28;20221;-81
2021/04/15 00:49:56;;;;;;;6.15;4.95;;;5.30;92.00;;;;;;5088253;28;20164;-80
2021/04/15 00:52:26;;;;;;;5.25;4.70;;;5.30;92.00;;;;;;5090339;28;20181;-80
2021/04/15 00:55:16;;;;;;;5.55;5.05;;;5.30;92.00;;;;;;5080628;28;20212;-80
2021/04/15 00:57:45;;;;;;;5.65;4.78;;;5.30;92.60;;;;;;5058663;28;20192;-79
2021/04/15 01:00:11;;;;;;;4.80;4.30;;;5.30;92.00;;;;;;5075792;28;20516;-79
2021/04/15 01:02:40;;;;;;;5.50;4.82;;;5.20;92.10;;;;;;5078167;28;20172;-78
2021/04/15 01:05:32;;;;;;;6.78;5.32;;;5.20;92.20;;;;;;5074767;28;20203;-80
2021/04/15 01:07:58;;;;;;;6.03;5.00;;;5.20;92.50;;;;;;5063177;28;20184;-79
2021/04/15 01:10:25;;;;;;;4.47;4.05;;;5.20;92.40;;;;;;5074502;28;20179;-79
2021/04/15 01:13:11;;;;;;;5.97;5.13;;;5.10;92.60;;;;;;5078112;28;20179;-78
2021/04/15 01:16:08;;;;;;;5.82;4.53;;;5.10;93.10;;;;;;5079969;28;20179;-78
2021/04/15 01:19:13;;;;;;;4.95;4.45;;;5.10;93.40;;;;;;5081215;28;20171;-79
2021/04/15 01:22:00;;;;;;;4.43;3.90;;;5.00;93.40;;;;;;5076614;28;20187;-79
2021/04/15 01:24:39;;;;;;;5.32;4.40;;;5.00;93.30;;;;;;5077903;28;20254;-79
2021/04/15 01:27:20;;;;;;;6.75;5.50;;;5.00;93.30;;;;;;5077063;28;20221;-79
2021/04/15 01:30:21;;;;;;;6.15;5.50;;;5.00;93.40;;;;;;5077103;28;20188;-78
2021/04/15 01:33:12;;;;;;;6.10;5.18;;;5.00;94.10;;;;;;5076985;28;20698;-77
2021/04/15 01:36:00;;;;;;;5.45;4.95;;;5.00;93.80;;;;;;5078795;28;20176;-78
2021/04/15 01:38:36;;;;;;;6.10;5.00;;;5.00;93.80;;;;;;5079626;28;20294;-79
2021/04/15 01:41:15;;;;;;;6.72;5.68;;;4.90;93.80;;;;;;5080500;28;20176;-78
2021/04/15 01:44:02;;;;;;;6.70;5.85;;;4.90;94.20;;;;;;5083549;28;20195;-78
2021/04/15 01:46:31;;;;;;;7.95;5.20;;;4.90;94.80;;;;;;5080511;28;20199;-78
2021/04/15 01:48:58;;;;;;;6.90;5.22;;;4.90;94.00;;;;;;5081712;28;20168;-78
2021/04/15 01:51:32;;;;;;;8.27;6.00;;;4.90;94.20;;;;;;5082579;28;20181;-78
2021/04/15 01:54:09;;;;;;;7.05;6.00;;;4.80;94.40;;;;;;5081456;28;20235;-79
2021/04/15 01:56:50;;;;;;;6.85;6.07;;;4.80;94.80;;;;;;5077217;28;20653;-78
2021/04/15 01:59:40;;;;;;;5.32;4.85;;;4.80;95.00;;;;;;5059496;28;20632;-78
2021/04/15 02:02:27;;;;;;;5.22;4.50;;;4.80;95.30;;;;;;5067513;28;20188;-78
2021/04/15 02:05:19;;;;;;;7.75;6.20;;;4.80;95.70;;;;;;5074982;28;20218;-79
2021/04/15 02:07:53;;;;;;;6.50;5.57;;;4.80;95.50;;;;;;5074491;28;20187;-78
2021/04/15 02:10:20;;;;;;;6.05;5.45;;;4.70;95.00;;;;;;5075052;28;20169;-80
2021/04/15 02:12:50;;;;;;;6.07;5.45;;;4.70;95.00;;;;;;5073987;28;20165;-79
2021/04/15 02:15:29;;;;;;;6.15;5.40;;;4.70;95.30;;;;;;5060455;28;20238;-78
2021/04/15 02:18:06;;;;;;;6.38;5.78;;;4.70;95.70;;;;;;5055553;28;20176;-80
2021/04/15 02:20:32;;;;;;;7.10;6.40;;;4.70;96.00;;;;;;5056902;28;20236;-78
2021/04/15 02:23:01;;;;;;;6.68;6.07;;;4.70;95.50;;;;;;5058986;28;20553;-81
2021/04/15 02:25:37;;;;;;;6.93;6.28;;;4.70;95.60;;;;;;5057791;28;20247;-78
2021/04/15 02:28:17;;;;;;;8.95;6.82;;;4.70;96.20;;;;;;5058240;28;20656;-79
2021/04/15 02:30:52;;;;;;;7.40;6.25;;;4.70;96.10;;;;;;5052277;28;20181;-79
2021/04/15 02:33:44;;;;;;;6.10;5.50;;;4.70;96.40;;;;;;5066968;28;20172;-79
2021/04/15 02:36:11;;;;;;;6.80;5.65;;;4.60;96.20;;;;;;5058813;28;20216;-79
2021/04/15 02:38:53;;;;;;;7.13;5.20;;;4.60;96.20;;;;;;5074767;28;20228;-79
2021/04/15 02:41:26;;;;;;;6.78;5.50;;;4.60;96.90;;;;;;5081645;28;20176;-79
2021/04/15 02:44:10;;;;;;;8.38;5.28;;;4.60;96.50;;;;;;5080394;28;20214;-78
2021/04/15 02:47:03;;;;;;;5.93;5.05;;;4.60;97.00;;;;;;5074626;28;20175;-78
2021/04/15 02:49:31;;;;;;;5.55;5.05;;;4.60;97.30;;;;;;5057055;28;20172;-78
2021/04/15 02:52:16;;;;;;;6.22;5.20;;;4.60;96.70;;;;;;5062641;28;20256;-79
2021/04/15 02:54:50;;;;;;;5.97;5.47;;;4.50;97.10;;;;;;5052059;28;20204;-79
2021/04/15 02:57:20;;;;;;;6.15;5.55;;;4.50;97.10;;;;;;5052165;28;20235;-79
2021/04/15 03:00:04;;;;;;;6.25;5.60;;;4.50;97.10;;;;;;5054870;28;20188;-79
2021/04/15 03:02:33;;;;;;;6.90;5.93;;;4.50;97.50;;;;;;5054850;28;20216;-79
2021/04/15 03:05:09;;;;;;;7.03;6.40;;;4.40;97.20;;;;;;5056619;28;20227;-80
2021/04/15 03:07:39;;;;;;;7.13;5.13;;;4.40;97.80;;;;;;5056511;28;20177;-79
2021/04/15 03:10:10;;;;;;;7.85;6.30;;;4.40;97.50;;;;;;5059024;28;20601;-79
2021/04/15 03:12:46;;;;;;;6.30;5.70;;;4.40;97.60;;;;;;5054515;28;20203;-79
2021/04/15 03:15:21;;;;;;;6.63;6.03;;;4.30;97.70;;;;;;5055632;28;20203;-79
2021/04/15 03:17:59;;;;;;;5.47;4.95;;;4.30;98.00;;;;;;5056890;28;20175;-77
2021/04/15 03:20:48;;;;;;;5.85;4.95;;;4.30;98.20;;;;;;5072758;28;20191;-79
2021/04/15 03:23:44;;;;;;;6.72;5.03;;;4.30;98.00;;;;;;5072063;28;20234;-78
2021/04/15 03:26:43;;;;;;;4.93;4.43;;;4.30;98.20;;;;;;5061293;28;20271;-77
2021/04/15 03:29:28;;;;;;;6.47;5.88;;;4.30;98.40;;;;;;5078727;28;20544;-78
2021/04/15 03:32:14;;;;;;;5.82;5.38;;;4.30;98.50;;;;;;5065981;28;20173;-79
2021/04/15 03:35:32;;;;;;;8.00;5.50;;;4.20;98.60;;;;;;5061664;28;20598;-78
2021/04/15 03:38:07;;;;;;;6.72;5.90;;;4.20;98.80;;;;;;5035402;28;20185;-79
2021/04/15 03:40:37;;;;;;;7.65;5.88;;;4.20;98.10;;;;;;5064515;28;20199;-79
2021/04/15 03:43:09;;;;;;;7.88;6.45;;;4.20;98.40;;;;;;5073061;28;20176;-79
2021/04/15 03:45:42;;;;;;;6.60;5.68;;;4.20;98.60;;;;;;5088634;28;20180;-79
2021/04/15 03:48:12;;;;;;;6.90;6.20;;;4.10;98.70;;;;;;5068615;28;20169;-79
2021/04/15 03:50:56;;;;;;;7.28;6.43;;;4.10;98.70;;;;;;5063926;28;20175;-78
2021/04/15 03:53:43;;;;;;;6.78;6.05;;;4.10;99.30;;;;;;5062722;28;20176;-79
2021/04/15 03:56:29;;;;;;;7.70;6.50;;;4.10;99.40;;;;;;5076577;28;20275;-78
2021/04/15 03:59:10;;;;;;;10.40;8.70;;;4.10;99.80;;;;;;5062268;28;20168;-78
2021/04/15 04:01:43;;;;;;;10.73;8.68;;;4.10;99.90;;;;;;5058468;28;20641;-77
2021/04/15 04:04:40;;;;;;;11.13;9.52;;;4.10;99.70;;;;;;5039777;28;20204;-78
2021/04/15 04:07:12;;;;;;;9.68;8.70;;;4.10;99.90;;;;;;5060668;28;20157;-78
2021/04/15 04:09:44;;;;;;;12.77;9.27;;;4.10;99.60;;;;;;5063095;28;20666;-79
2021/04/15 04:12:16;;;;;;;11.20;8.73;;;4.10;99.80;;;;;;5060743;28;20188;-78
2021/04/15 04:14:51;;;;;;;10.68;8.15;;;4.10;99.70;;;;;;5042873;28;20193;-78
2021/04/15 04:17:33;;;;;;;9.27;8.27;;;4.00;99.90;;;;;;5040807;28;20546;-79
2021/04/15 04:20:03;;;;;;;8.40;7.05;;;4.00;99.90;;;;;;5062117;28;20183;-79
2021/04/15 04:22:53;;;;;;;7.75;6.95;;;4.00;99.90;;;;;;5064977;28;20582;-79
2021/04/15 04:25:23;;;;;;;7.90;6.88;;;4.00;99.90;;;;;;5060450;28;20200;-79
2021/04/15 04:28:11;;;;;;;8.23;7.53;;;4.00;99.90;;;;;;5068282;28;20173;-79
2021/04/15 04:31:03;;;;;;;8.70;6.85;;;4.00;99.90;;;;;;5075489;28;20621;-79
2021/04/15 04:33:40;;;;;;;7.53;6.03;;;4.00;99.90;;;;;;5064328;28;20207;-79
2021/04/15 04:36:09;;;;;;;6.00;5.43;;;4.00;99.90;;;;;;5039781;28;20176;-79
2021/04/15 04:38:35;;;;;;;7.80;6.40;;;4.00;99.90;;;;;;5057239;28;20165;-78
2021/04/15 04:41:09;;;;;;;6.45;5.72;;;4.00;99.90;;;;;;5056398;28;20255;-79
2021/04/15 04:43:43;;;;;;;7.22;6.40;;;4.00;99.90;;;;;;5059398;28;20189;-79
2021/04/15 04:46:18;;;;;;;8.80;6.20;;;3.90;99.90;;;;;;5059527;28;20239;-79
2021/04/15 04:48:55;;;;;;;7.25;6.38;;;3.90;99.90;;;;;;5041598;28;20574;-79
2021/04/15 04:51:23;;;;;;;8.27;6.70;;;4.00;99.90;;;;;;5058689;28;20168;-79
2021/04/15 04:53:50;;;;;;;7.22;6.53;;;4.00;99.90;;;;;;5056278;28;20196;-79
2021/04/15 04:56:32;;;;;;;6.68;6.07;;;4.00;99.90;;;;;;5057009;28;20173;-79
2021/04/15 04:59:15;;;;;;;7.65;6.55;;;4.00;99.90;;;;;;5054352;28;20279;-79
2021/04/15 05:01:42;;;;;;;7.65;5.72;;;4.00;99.90;;;;;;5058087;28;20173;-79
2021/04/15 05:04:08;;;;;;;6.47;5.97;;;4.10;99.90;;;;;;5054497;28;20204;-80
2021/04/15 05:06:42;;;;;;;6.60;6.00;;;4.20;99.90;;;;;;5061413;28;20165;-79
2021/04/15 05:09:47;;;;;;;8.70;6.00;;;4.20;99.90;;;;;;5070784;28;20161;-79
2021/04/15 05:12:20;;;;;;;8.95;6.40;;;4.30;99.90;;;;;;4992671;28;20167;-78
2021/04/15 05:14:46;;;;;;;7.38;6.68;;;4.40;99.90;;;;;;4995436;28;20267;-78
2021/04/15 05:17:34;;;;;;;6.67;6.03;;;4.50;99.90;;;;;;5035430;28;20169;-79
2021/04/15 05:20:14;;;;;;;7.75;7.05;;;4.60;99.90;;;;;;5074625;28;20567;-79
2021/04/15 05:22:51;;;;;;;7.07;6.40;;;4.70;99.90;;;;;;5070730;28;20167;-78
2021/04/15 05:25:25;;;;;;;7.53;6.72;;;4.90;99.90;;;;;;5076552;28;20211;-78
2021/04/15 05:27:51;;;;;;;8.98;8.00;;;5.00;99.90;;;;;;5072169;28;20177;-79
2021/04/15 05:30:49;;;;;;;7.75;7.05;;;5.10;99.90;;;;;;5058184;28;20185;-79
2021/04/15 05:33:22;;;;;;;9.35;7.53;;;5.20;99.90;;;;;;5075933;28;20203;-78
2021/04/15 05:36:04;;;;;;;10.02;7.85;;;5.20;99.90;;;;;;5054977;28;20243;-79
2021/04/15 05:38:41;;;;;;;7.55;6.82;;;5.30;99.90;;;;;;5058611;28;20204;-79
2021/04/15 05:41:12;;;;;;;11.20;7.72;;;5.30;99.90;;;;;;5073254;28;20198;-79
2021/04/15 05:43:45;;;;;;;8.90;6.68;;;5.40;99.90;;;;;;5072875;28;20203;-79
2021/04/15 05:46:19;;;;;;;7.20;6.50;;;5.40;99.90;;;;;;5089798;28;20240;-79
2021/04/15 05:48:46;;;;;;;9.05;7.28;;;5.50;99.90;;;;;;5081663;28;20192;-78
2021/04/15 05:51:18;;;;;;;7.78;7.07;;;5.50;99.90;;;;;;5084480;28;20191;-77
2021/04/15 05:53:51;;;;;;;7.78;7.03;;;5.60;99.90;;;;;;5054926;28;20203;-77
2021/04/15 05:56:24;;;;;;;8.30;7.43;;;5.70;99.90;;;;;;5058516;28;20177;-78
2021/04/15 05:59:13;;;;;;;7.88;6.72;;;5.80;99.90;;;;;;5051857;28;20208;-78
2021/04/15 06:01:54;;;;;;;9.18;6.85;;;5.80;99.90;;;;;;5051528;28;20176;-78
2021/04/15 06:04:45;;;;;;;9.00;6.82;;;5.80;99.90;;;;;;5051148;28;20283;-77
2021/04/15 06:07:22;;;;;;;7.72;6.95;;;5.80;99.90;;;;;;5058171;28;20187;-76
2021/04/15 06:09:49;;;;;;;7.13;5.90;;;5.90;99.90;;;;;;5046095;28;20172;-78
2021/04/15 06:12:24;;;;;;;9.20;7.57;;;5.90;99.90;;;;;;5055255;28;20175;-76
2021/04/15 06:15:06;;;;;;;8.13;6.65;;;6.00;99.90;;;;;;5062932;28;20223;-76
2021/04/15 06:17:48;;;;;;;7.47;6.78;;;6.00;99.90;;;;;;5052268;28;20164;-77
2021/04/15 06:20:27;;;;;;;9.32;7.18;;;6.10;99.90;;;;;;5036775;28;20271;-78
2021/04/15 06:22:57;;;;;;;6.97;5.45;;;6.20;99.90;;;;;;5051983;28;20574;-76
2021/04/15 06:25:45;;;;;;;7.32;6.72;;;6.30;99.90;;;;;;5074415;28;20195;-76
2021/04/15 06:28:19;;;;;;;9.68;8.05;;;6.30;99.90;;;;;;5060127;28;20172;-76
2021/04/15 06:30:58;;;;;;;7.72;6.93;;;6.50;99.90;;;;;;5074851;28;20178;-75
2021/04/15 06:33:30;;;;;;;8.10;7.00;;;6.60;99.90;;;;;;5073992;28;20167;-75
2021/04/15 06:35:58;;;;;;;8.13;7.40;;;6.80;99.90;;;;;;5072433;28;20167;-76
2021/04/15 06:38:49;;;;;;;7.60;6.90;;;7.30;99.90;;;;;;5071472;28;20226;-75
2021/04/15 06:41:32;;;;;;;7.22;6.63;;;8.20;99.90;;;;;;5071842;28;20519;-75
2021/04/15 06:44:17;;;;;;;8.50;7.40;;;9.40;99.90;;;;;;5081538;28;20200;-77
2021/04/15 06:47:19;;;;;;;8.25;7.45;;;10.70;99.90;;;;;;5072327;28;20176;-75
2021/04/15 06:50:11;;;;;;;8.27;6.65;;;12.00;99.90;;;;;;5050488;28;20160;-75
2021/04/15 06:53:15;;;;;;;9.10;7.37;;;13.40;99.90;;;;;;5052779;28;20491;-76
2021/04/15 06:56:14;;;;;;;9.50;7.23;;;14.60;99.90;;;;;;5051695;28;20583;-76
2021/04/15 06:59:06;;;;;;;5.50;5.10;;;15.90;99.90;;;;;;5050368;28;20579;-75
2021/04/15 07:01:41;;;;;;;6.90;6.30;;;17.00;99.90;;;;;;5050367;28;20564;-76
2021/04/15 07:04:12;;;;;;;9.10;7.80;;;18.10;99.90;;;;;;5057778;28;21273;-76
2021/04/15 07:07:06;;;;;;;8.03;7.30;;;18.90;99.90;;;;;;5065451;28;20567;-76
2021/04/15 07:09:44;;;;;;;16.87;13.00;;;19.50;99.70;;;;;;5050380;28;20683;-76
2021/04/15 07:12:37;;;;;;;13.07;11.73;;;20.30;99.20;;;;;;5051364;28;20571;-75
2021/04/15 07:15:08;;;;;;;8.63;7.83;;;20.90;96.70;;;;;;5057840;28;20623;-75
2021/04/15 07:17:53;;;;;;;7.73;5.93;;;21.40;95.20;;;;;;5086901;28;20587;-75
2021/04/15 07:20:35;;;;;;;6.50;5.27;;;21.80;93.50;;;;;;5073876;28;20574;-74
2021/04/15 07:23:18;;;;;;;5.63;3.70;;;22.20;92.40;;;;;;5091442;28;20998;-75
2021/04/15 07:25:50;;;;;;;5.57;5.07;;;22.70;92.00;;;;;;5090352;28;20617;-74
2021/04/15 07:28:21;;;;;;;5.07;4.67;;;23.20;90.60;;;;;;5091403;28;20562;-75
2021/04/15 07:31:26;;;;;;;5.63;4.93;;;23.50;89.00;;;;;;5089094;28;20581;-75
2021/04/15 07:34:20;;;;;;;5.27;4.77;;;23.80;84.40;;;;;;5051410;28;20680;-75
2021/04/15 07:37:23;;;;;;;5.63;5.03;;;24.20;84.20;;;;;;5049763;28;20571;-74
2021/04/15 07:40:34;;;;;;;7.50;4.57;;;24.50;80.30;;;;;;5050103;28;20567;-74
2021/04/15 07:43:09;;;;;;;3.77;3.47;;;24.80;76.90;;;;;;5034029;28;20669;-79
2021/04/15 07:45:48;;;;;;;4.97;4.50;;;25.10;76.60;;;;;;5051276;28;20567;-78
2021/04/15 07:48:49;;;;;;;7.27;6.57;;;25.30;74.50;;;;;;5049232;28;20931;-79
2021/04/15 07:52:10;;;;;;;4.13;3.83;;;25.50;73.80;;;;;;5028945;28;20571;-78
2021/04/15 07:54:54;;;;;;;3.87;3.60;;;25.80;73.50;;;;;;5042913;28;20995;-79
2021/04/15 07:58:01;;;;;;;4.60;4.20;;;26.10;70.80;;;;;;5058369;28;20579;-79
2021/04/15 08:01:03;;;;;;;6.03;5.43;;;26.40;68.90;;;;;;5049672;28;20671;-79
2021/04/15 08:03:37;;;;;;;4.47;4.13;;;26.70;67.20;;;;;;5051091;28;21527;-80
2021/04/15 08:06:25;;;;;;;4.47;4.07;;;26.90;64.60;;;;;;5052508;28;20572;-82
2021/04/15 08:09:36;;;;;;;4.47;4.07;;;27.20;64.30;;;;;;5065939;28;20597;-80
2021/04/15 08:12:32;;;;;;;3.60;3.10;;;27.50;62.40;;;;;;5019785;28;20582;-80
2021/04/15 08:15:39;;;;;;;4.07;3.00;;;27.70;61.50;;;;;;5068239;28;20638;-78
2021/04/15 08:18:17;;;;;;;3.93;3.40;;;28.00;60.00;;;;;;4975290;28;20655;-78
2021/04/15 08:21:01;;;;;;;3.43;3.10;;;28.30;59.30;;;;;;5008630;28;20585;-79
2021/04/15 08:23:54;;;;;;;6.53;3.43;;;28.50;57.90;;;;;;5041132;28;20579;-77
2021/04/15 08:26:44;;;;;;;3.40;3.10;;;28.70;57.10;;;;;;5043594;28;20595;-77
2021/04/15 08:29:23;;;;;;;4.13;3.30;;;28.80;55.50;;;;;;5068310;28;20630;-78
2021/04/15 08:32:12;;;;;;;3.17;2.90;;;28.80;54.20;;;;;;5067664;28;20934;-79
2021/04/15 08:35:01;;;;;;;5.63;4.33;;;28.80;53.40;;;;;;5037881;28;20698;-79
2021/04/15 08:37:46;;;;;;;4.00;3.70;;;28.80;52.60;;;;;;5048641;28;20696;-78
2021/04/15 08:40:35;;;;;;;3.40;3.10;;;28.90;51.40;;;;;;5060412;28;20685;-78
2021/04/15 08:43:34;;;;;;;4.30;3.37;;;29.00;51.00;;;;;;5060298;28;20580;-79
2021/04/15 08:46:09;;;;;;;4.43;3.77;;;29.10;51.00;;;;;;5053887;28;21393;-79
2021/04/15 08:49:05;;;;;;;4.00;3.60;;;28.90;49.20;;;;;;5053684;28;20665;-80
2021/04/15 08:52:01;;;;;;;3.70;3.40;;;28.60;47.80;;;;;;5069341;28;20578;-81
2021/04/15 08:55:00;;;;;;;6.67;3.20;;;28.20;48.30;;;;;;5035724;28;20979;-84
2021/04/15 08:57:50;;;;;;;3.13;2.70;;;28.30;48.30;;;;;;5052698;28;20984;-81
2021/04/15 09:00:32;;;;;;;4.67;3.43;;;28.40;48.10;;;;;;5037378;28;20587;-81
2021/04/15 09:03:32;;;;;;;3.60;3.20;;;28.40;48.20;;;;;;5058959;28;20571;-80
2021/04/15 09:06:10;;;;;;;4.57;4.03;;;28.60;47.30;;;;;;5043208;28;20665;-80
2021/04/15 09:09:08;;;;;;;3.60;3.30;;;28.50;46.90;;;;;;5043105;28;20571;-80
2021/04/15 09:11:58;;;;;;;4.40;3.60;;;28.40;46.50;;;;;;5041226;28;20560;-75
2021/04/15 09:14:27;;;;;;;3.40;3.10;;;28.00;45.10;;;;;;5062584;28;20630;-76
2021/04/15 09:17:07;;;;;;;2.77;2.57;;;27.20;43.20;;;;;;5059159;28;20581;-80
2021/04/15 09:20:14;;;;;;;2.27;1.70;;;26.10;42.10;;;;;;5077716;28;20569;-78
2021/04/15 09:23:01;;;;;;;2.60;1.00;;;24.80;41.90;;;;;;5056392;28;20628;-79
2021/04/15 09:26:05;;;;;;;2.40;1.47;;;23.40;40.90;;;;;;5072771;28;20760;-81
2021/04/15 09:29:00;;;;;;;2.17;1.40;;;22.10;41.00;;;;;;5072290;28;20574;-80
2021/04/15 09:31:56;;;;;;;1.90;1.70;;;20.90;41.10;;;;;;5068823;28;20689;-80
2021/04/15 09:34:51;;;;;;;1.90;1.70;;;19.90;41.40;;;;;;5055146;28;20715;-78
2021/04/15 09:37:51;;;;;;;5.27;1.83;;;19.00;41.50;;;;;;5055323;28;20570;-79
2021/04/15 09:40:52;;;;;;;3.83;2.43;;;18.20;41.90;;;;;;5070352;28;20686;-80
2021/04/15 09:43:42;;;;;;;3.00;1.97;;;17.50;42.80;;;;;;5064292;28;20998;-79
2021/04/15 09:46:19;;;;;;;3.83;2.07;;;17.00;43.10;;;;;;5071678;28;20583;-80
2021/04/15 09:49:11;;;;;;;6.93;2.57;;;16.50;43.40;;;;;;5072202;28;20578;-80
2021/04/15 09:51:40;;;;;;;4.93;2.60;;;16.20;43.80;;;;;;5048607;28;20590;-79
2021/04/15 09:54:26;;;;;;;3.10;2.70;;;16.00;44.30;;;;;;5051542;28;20631;-80
2021/04/15 09:57:30;;;;;;;4.65;2.78;;;15.90;44.80;;;;;;5053986;28;20563;-80
2021/04/15 10:00:10;;;;;;;2.77;2.57;;;15.80;45.30;;;;;;5054273;28;20174;-82
2021/04/15 10:02:43;;;;;;;3.73;3.07;;;15.80;45.80;;;;;;5068622;28;21134;-80
2021/04/15 10:05:29;;;;;;;3.60;3.07;;;16.00;46.30;;;;;;5052403;28;20651;-81
2021/04/15 10:07:59;;;;;;;3.07;2.47;;;16.00;46.50;;;;;;5067522;28;20586;-79
2021/04/15 10:10:34;;;;;;;4.03;2.83;;;16.00;46.40;;;;;;5057399;28;20597;-80
2021/04/15 10:13:40;;;;;;;4.00;2.67;;;16.00;46.40;;;;;;5071899;28;20658;-77
2021/04/15 10:16:36;;;;;;;2.27;2.03;;;16.00;46.60;;;;;;5042859;28;20591;-79
2021/04/15 10:19:32;;;;;;;3.60;2.00;;;16.10;47.00;;;;;;5060056;28;20658;-78
2021/04/15 10:22:22;;;;;;;4.17;2.07;;;16.50;47.90;;;;;;5059697;28;21115;-78
2021/04/15 10:24:57;;;;;;;3.97;3.23;;;17.10;49.00;;;;;;5062803;28;20638;-79
2021/04/15 10:27:58;;;;;;;2.07;1.60;;;17.50;48.30;;;;;;5079579;28;20930;-78
2021/04/15 10:30:45;;;;;;;3.33;1.87;;;17.50;47.20;;;;;;5080629;28;20571;-78
2021/04/15 10:33:11;;;;;;;2.03;1.47;;;17.40;46.50;;;;;;5064007;28;20601;-78
2021/04/15 10:36:01;;;;;;;3.87;1.97;;;17.30;46.60;;;;;;5079769;28;20594;-79
2021/04/15 10:38:52;;;;;;;3.40;1.50;;;17.50;47.10;;;;;;5086277;28;20267;-79
2021/04/15 10:41:46;;;;;;;2.13;1.87;;;17.60;47.30;;;;;;5093613;28;20578;-79
2021/04/15 10:44:36;;;;;;;3.43;1.90;;;17.90;47.90;;;;;;5087894;28;20618;-79
2021/04/15 10:47:23;;;;;;;3.07;2.00;;;18.10;47.60;;;;;;5054449;28;20708;-80
2021/04/15 10:50:11;;;;;;;2.80;1.20;;;18.30;47.30;;;;;;5064875;28;20579;-80
2021/04/15 10:52:55;;;;;;;3.67;2.10;;;18.60;48.10;;;;;;5056948;28;20973;-80
2021/04/15 10:55:24;;;;;;;3.47;1.50;;;18.90;48.00;;;;;;5055791;28;21231;-81
2021/04/15 10:57:53;;;;;;;2.33;1.20;;;19.00;46.90;;;;;;5054238;28;20555;-81
2021/04/15 11:00:35;;;;;;;3.17;1.80;;;18.90;46.00;;;;;;5053951;28;20671;-80
2021/04/15 11:03:22;;;;;;;3.43;2.10;;;18.70;45.20;;;;;;5053835;28;20580;-80
2021/04/15 11:05:52;;;;;;;3.10;1.30;;;18.40;45.20;;;;;;5062435;28;20940;-79
2021/04/15 11:08:28;;;;;;;3.93;1.97;;;18.20;45.60;;;;;;5071770;28;20567;-79
2021/04/15 11:11:13;;;;;;;1.70;1.10;;;18.00;45.40;;;;;;5075576;28;20577;-79
2021/04/15 11:13:39;;;;;;;1.90;1.27;;;17.90;45.30;;;;;;5063908;28;20615;-79
2021/04/15 11:16:19;;;;;;;1.90;1.10;;;17.90;46.30;;;;;;5050557;28;20985;-80
2021/04/15 11:18:45;;;;;;;1.83;1.10;;;18.00;46.60;;;;;;5051910;28;21111;-79
2021/04/15 11:21:20;;;;;;;2.20;1.03;;;18.20;47.20;;;;;;5051223;28;20647;-80
2021/04/15 11:23:47;;;;;;;2.93;1.57;;;18.40;46.90;;;;;;5050186;28;20974;-79
2021/04/15 11:26:17;;;;;;;2.43;1.43;;;18.60;46.60;;;;;;5051268;28;20567;-79
2021/04/15 11:28:44;;;;;;;1.80;1.20;;;18.70;46.10;;;;;;5051231;28;20624;-79
2021/04/15 11:31:10;;;;;;;3.87;1.30;;;18.70;46.00;;;;;;5050150;28;20570;-80
2021/04/15 11:33:45;;;;;;;2.00;1.07;;;18.80;46.30;;;;;;5050251;28;20948;-79
2021/04/15 11:36:24;;;;;;;1.83;1.00;;;19.10;47.20;;;;;;5049827;28;20180;-78
2021/04/15 11:39:05;;;;;;;3.23;0.90;;;19.40;47.20;;;;;;5051262;28;20575;-78
2021/04/15 11:41:35;;;;;;;1.67;1.17;;;19.60;46.10;;;;;;5049935;28;20594;-79
2021/04/15 11:44:08;;;;;;;1.67;1.00;;;19.50;45.60;;;;;;5049896;28;20595;-79
2021/04/15 11:46:38;;;;;;;2.87;1.00;;;19.20;44.50;;;;;;5049672;28;20575;-77
2021/04/15 11:49:40;;;;;;;1.80;1.40;;;19.00;44.30;;;;;;5057181;28;20591;-79
2021/04/15 11:52:11;;;;;;;1.40;0.90;;;18.50;44.00;;;;;;5041243;28;20591;-78
2021/04/15 11:54:42;;;;;;;2.37;1.03;;;18.20;43.50;;;;;;5050692;28;21018;-79
2021/04/15 11:57:37;;;;;;;1.97;0.80;;;18.00;43.50;;;;;;5049504;28;20625;-78
2021/04/15 12:00:24;;;;;;;1.83;0.80;;;17.70;43.40;;;;;;5049338;28;20587;-79
2021/04/15 12:02:56;;;;;;;2.00;1.10;;;17.50;43.60;;;;;;5054166;28;20580;-79
2021/04/15 12:05:29;;;;;;;2.40;1.03;;;17.30;43.80;;;;;;5037101;28;20599;-79
2021/04/15 12:08:00;;;;;;;2.00;1.00;;;17.20;44.20;;;;;;5053526;28;20560;-78
2021/04/15 12:10:30;;;;;;;2.20;1.40;;;17.20;44.30;;;;;;5037173;28;20636;-79
2021/04/15 12:13:15;;;;;;;1.83;1.00;;;17.20;44.50;;;;;;5053751;28;20674;-79
2021/04/15 12:16:10;;;;;;;3.50;1.07;;;17.30;44.80;;;;;;5059568;28;20654;-79
2021/04/15 12:18:45;;;;;;;1.83;1.00;;;17.50;45.70;;;;;;5032774;28;20587;-78
2021/04/15 12:21:34;;;;;;;3.77;1.10;;;17.80;46.10;;;;;;5063494;28;20578;-79
2021/04/15 12:24:04;;;;;;;2.43;1.40;;;18.10;46.20;;;;;;5066725;28;20615;-77
2021/04/15 12:26:47;;;;;;;4.83;1.10;;;18.50;46.60;;;;;;5022965;28;20657;-77
2021/04/15 12:29:31;;;;;;;3.27;1.33;;;18.50;44.80;;;;;;5053257;28;20603;-78
2021/04/15 12:32:03;;;;;;;1.40;0.87;;;18.50;42.70;;;;;;5071256;28;20586;-78
2021/04/15 12:34:47;;;;;;;1.77;0.83;;;18.40;43.90;;;;;;5046452;28;20658;-79
2021/04/15 12:37:20;;;;;;;1.70;1.00;;;18.30;43.50;;;;;;5062979;28;21152;-77
2021/04/15 12:40:05;;;;;;;1.73;1.03;;;18.20;43.00;;;;;;5060675;28;21497;-77
2021/04/15 12:42:36;;;;;;;2.33;1.33;;;18.10;43.50;;;;;;5062390;28;20572;-77
2021/04/15 12:45:27;;;;;;;4.90;1.83;;;18.10;43.60;;;;;;5053121;28;21067;-78
2021/04/15 12:47:55;;;;;;;2.30;1.17;;;17.90;43.10;;;;;;5052548;28;20567;-80
2021/04/15 12:50:21;;;;;;;2.50;1.13;;;17.80;43.20;;;;;;5057044;28;20589;-80
2021/04/15 12:52:49;;;;;;;2.20;1.10;;;17.60;42.80;;;;;;5058057;28;20587;-79
2021/04/15 12:55:20;;;;;;;1.60;1.10;;;17.40;43.10;;;;;;5052634;28;20730;-79
2021/04/15 12:57:49;;;;;;;1.70;1.30;;;17.30;42.80;;;;;;5052110;28;20578;-78
2021/04/15 13:00:37;;;;;;;2.83;1.20;;;17.10;42.50;;;;;;5053890;28;20566;-78
2021/04/15 13:03:10;;;;;;;1.50;1.20;;;16.90;42.60;;;;;;5066537;28;20583;-78
2021/04/15 13:05:35;;;;;;;1.93;1.20;;;16.70;42.60;;;;;;5068018;28;20589;-78
2021/04/15 13:08:24;;;;;;;2.30;1.10;;;16.50;42.70;;;;;;5072297;28;21138;-78
2021/04/15 13:10:52;;;;;;;2.80;1.33;;;16.40;42.50;;;;;;5074060;28;20160;-78
2021/04/15 13:13:33;;;;;;;2.50;1.50;;;16.30;42.90;;;;;;5072051;28;20698;-79
2021/04/15 13:16:00;;;;;;;2.43;1.50;;;16.10;42.40;;;;;;5067913;28;20203;-78
2021/04/15 13:18:39;;;;;;;2.00;0.90;;;16.10;42.90;;;;;;5058067;28;20571;-80
2021/04/15 13:21:09;;;;;;;3.38;1.60;;;16.10;42.60;;;;;;5073585;28;20778;-80
2021/04/15 13:23:38;;;;;;;3.33;1.70;;;16.00;42.70;;;;;;5069310;28;20193;-79
2021/04/15 13:26:04;;;;;;;3.70;2.17;;;15.90;42.60;;;;;;5057894;28;20719;-79
2021/04/15 13:28:39;;;;;;;2.10;1.90;;;15.70;42.40;;;;;;5044415;28;20577;-79
2021/04/15 13:31:05;;;;;;;2.95;1.55;;;15.60;42.60;;;;;;5065948;28;20167;-80
2021/04/15 13:33:31;;;;;;;3.30;2.22;;;15.40;42.60;;;;;;5066287;28;20730;-78
2021/04/15 13:36:00;;;;;;;3.43;1.90;;;15.00;43.30;;;;;;5067021;28;20568;-79
2021/04/15 13:38:31;;;;;;;3.63;1.77;;;14.80;43.30;;;;;;5064722;28;20252;-78
2021/04/15 13:41:27;;;;;;;2.45;1.60;;;14.60;43.10;;;;;;5068333;28;20540;-78
2021/04/15 13:44:08;;;;;;;2.60;1.50;;;14.40;43.30;;;;;;5052094;28;20227;-79
2021/04/15 13:46:42;;;;;;;2.45;1.45;;;14.20;43.40;;;;;;5049033;28;20184;-79
2021/04/15 13:49:20;;;;;;;1.65;1.02;;;14.00;43.50;;;;;;5064138;28;20218;-80
2021/04/15 13:51:49;;;;;;;2.00;1.20;;;13.90;43.60;;;;;;5067540;28;20529;-76
2021/04/15 13:54:21;;;;;;;1.80;1.20;;;13.70;43.50;;;;;;5065573;28;20201;-82
2021/04/15 13:57:00;;;;;;;2.13;1.20;;;13.60;43.50;;;;;;5056099;28;20507;-79